Time;durP1;ratioP1;P1;durP2;ratioP2;P2;SDS_P1;SDS_P2;PMS_P1;PMS_P2;Temp;Humidity;BMP_temperature;BMP_pressure;BME280_temperature;BME280_humidity;BME280_pressure;Samples;Min_cycle;Max_cycle;Signal;HPM_P1;HPM_P2
2022/03/21 00:02:13;;;;;;;11.30;6.30;;;;;;;0.77;40.47;101235.55;25102;1316;3026181;-73
2022/03/21 00:04:43;;;;;;;9.20;5.10;;;;;;;0.79;40.27;101227.98;25109;1315;3027474;-70
2022/03/21 00:07:12;;;;;;;10.80;4.70;;;;;;;0.79;40.42;101220.91;25106;1315;3026591;-70
2022/03/21 00:09:42;;;;;;;10.10;5.90;;;;;;;0.81;40.52;101219.20;25076;1315;3054408;-70
2022/03/21 00:12:14;;;;;;;10.00;5.30;;;;;;;0.81;40.58;101218.86;25120;1315;3027361;-70
2022/03/21 00:14:44;;;;;;;10.90;5.40;;;;;;;0.78;40.58;101212.61;25135;1315;3049135;-68
2022/03/21 00:17:34;;;;;;;9.90;5.10;;;;;;;0.74;40.62;101216.04;25055;1315;3053196;-69
2022/03/21 00:20:04;;;;;;;11.00;6.30;;;;;;;0.70;40.92;101211.02;25111;1315;3026637;-67
2022/03/21 00:22:36;;;;;;;10.40;5.20;;;;;;;0.70;40.85;101208.42;25115;1315;3026228;-70
2022/03/21 00:25:05;;;;;;;13.50;5.70;;;;;;;0.69;40.98;101199.10;25077;1315;3027558;-71
2022/03/21 00:27:37;;;;;;;10.10;5.50;;;;;;;0.67;41.10;101195.64;25138;1312;3026805;-69
2022/03/21 00:30:09;;;;;;;11.60;6.30;;;;;;;0.64;41.25;101198.02;25148;1312;3026713;-69
2022/03/21 00:32:39;;;;;;;10.80;6.20;;;;;;;0.62;41.55;101195.09;25108;1315;3026509;-71
2022/03/21 00:35:28;;;;;;;13.60;6.90;;;;;;;0.56;41.43;101192.10;25161;1312;3050065;-70
2022/03/21 00:38:02;;;;;;;18.10;7.50;;;;;;;0.51;41.63;101186.89;25124;1312;3053902;-70
2022/03/21 00:40:32;;;;;;;17.80;7.20;;;;;;;0.49;41.76;101178.08;25180;1312;3026776;-73
2022/03/21 00:43:07;;;;;;;11.70;6.20;;;;;;;0.46;41.78;101179.77;25189;1312;3059333;-70
2022/03/21 00:45:38;;;;;;;19.40;7.60;;;;;;;0.48;41.82;101180.30;25192;1313;3026800;-70
2022/03/21 00:48:07;;;;;;;16.20;7.30;;;;;;;0.42;42.20;101180.09;25150;1312;3026851;-70
2022/03/21 00:50:37;;;;;;;15.40;7.60;;;;;;;0.40;42.24;101179.04;25153;1312;3026334;-66
2022/03/21 00:53:07;;;;;;;15.90;7.20;;;;;;;0.39;42.22;101184.38;25165;1312;3027344;-71
2022/03/21 00:55:37;;;;;;;13.80;7.80;;;;;;;0.41;42.14;101182.14;25196;1312;3028986;-68
2022/03/21 00:58:06;;;;;;;13.70;6.20;;;;;;;0.36;42.24;101185.21;25174;1315;3053492;-69
2022/03/21 01:00:34;;;;;;;12.50;6.20;;;;;;;0.36;42.29;101193.13;25113;1312;3026580;-70
2022/03/21 01:03:03;;;;;;;17.40;7.90;;;;;;;0.34;42.62;101191.40;25193;1312;3052030;-70
2022/03/21 01:05:34;;;;;;;14.00;6.20;;;;;;;0.29;42.59;101190.84;25198;1312;3026859;-67
2022/03/21 01:08:04;;;;;;;14.00;6.50;;;;;;;0.30;42.95;101192.91;25166;1312;3027021;-68
2022/03/21 01:10:33;;;;;;;13.90;6.30;;;;;;;0.25;43.13;101182.69;25133;1315;3026956;-67
2022/03/21 01:13:04;;;;;;;15.50;7.40;;;;;;;0.20;43.31;101186.44;25151;1315;3026423;-70
2022/03/21 01:15:34;;;;;;;14.40;6.80;;;;;;;0.14;43.46;101183.98;25153;1315;3026582;-69
2022/03/21 01:18:15;;;;;;;15.60;6.70;;;;;;;0.12;43.67;101183.27;25146;1312;3050601;-72
2022/03/21 01:20:45;;;;;;;15.70;6.60;;;;;;;0.10;43.88;101180.84;25217;1312;3026501;-69
2022/03/21 01:23:15;;;;;;;11.00;6.60;;;;;;;0.09;44.20;101179.59;25156;1312;3026526;-66
2022/03/21 01:25:45;;;;;;;17.60;7.10;;;;;;;0.11;44.29;101179.81;25168;1312;3027695;-68
2022/03/21 01:28:15;;;;;;;15.70;7.30;;;;;;;0.11;44.48;101186.69;25109;1312;3026616;-72
2022/03/21 01:30:44;;;;;;;14.40;6.10;;;;;;;0.10;44.62;101190.13;25157;1315;3026553;-71
2022/03/21 01:33:15;;;;;;;13.40;6.60;;;;;;;0.09;44.75;101194.77;25136;1312;3025911;-69
2022/03/21 01:35:44;;;;;;;15.00;6.80;;;;;;;0.08;44.82;101193.23;25145;1312;3026871;-69
2022/03/21 01:38:13;;;;;;;12.10;6.70;;;;;;;0.07;45.08;101194.40;25149;1312;3052293;-71
2022/03/21 01:40:43;;;;;;;12.20;6.80;;;;;;;0.11;45.06;101190.32;25116;1315;3027302;-69
2022/03/21 01:43:12;;;;;;;13.60;7.60;;;;;;;0.11;44.99;101181.01;25136;1312;3028146;-73
2022/03/21 01:45:41;;;;;;;17.50;7.30;;;;;;;0.12;44.96;101168.44;25097;1312;3055022;-66
2022/03/21 01:48:10;;;;;;;17.80;7.80;;;;;;;0.21;44.86;101161.80;25168;1312;3026630;-70
2022/03/21 01:50:41;;;;;;;22.20;10.00;;;;;;;0.24;45.12;101168.72;25115;1312;3050630;-70
2022/03/21 01:55:59;;;;;;;29.30;11.40;;;;;;;0.33;44.82;101161.39;25138;1312;3053037;-68
2022/03/21 01:58:30;;;;;;;24.60;10.30;;;;;;;0.41;44.73;101155.60;25144;1312;3026756;-68
2022/03/21 02:01:00;;;;;;;22.70;9.60;;;;;;;0.39;45.14;101152.30;25129;1315;3053275;-68
2022/03/21 02:03:30;;;;;;;19.40;9.20;;;;;;;0.44;45.18;101155.79;25165;1313;3026750;-72
2022/03/21 02:05:59;;;;;;;16.70;8.20;;;;;;;0.39;45.66;101150.23;25127;1313;3050239;-72
2022/03/21 02:08:28;;;;;;;15.30;7.60;;;;;;;0.30;46.16;101152.07;25181;1313;3026805;-67
2022/03/21 02:10:57;;;;;;;20.60;8.00;;;;;;;0.30;46.50;101146.88;25115;1315;3056303;-72
2022/03/21 02:13:27;;;;;;;21.40;7.50;;;;;;;0.31;46.86;101149.14;25089;1315;3027288;-67
2022/03/21 02:15:58;;;;;;;15.10;7.90;;;;;;;0.32;47.11;101142.94;25120;1315;3026691;-68
2022/03/21 02:18:27;;;;;;;15.60;8.30;;;;;;;0.38;46.97;101135.58;25157;1315;3026359;-71
2022/03/21 02:20:56;;;;;;;17.80;7.90;;;;;;;0.39;47.19;101137.31;25141;1315;3026462;-71
2022/03/21 02:23:55;;;;;;;17.90;8.00;;;;;;;0.41;47.43;101141.80;25133;1313;3053281;-66
2022/03/21 02:26:24;;;;;;;14.50;7.40;;;;;;;0.26;47.89;101143.58;25118;1315;3050484;-69
2022/03/21 02:28:54;;;;;;;18.40;8.40;;;;;;;0.21;48.07;101134.73;25090;1315;3026856;-69
2022/03/21 02:31:23;;;;;;;19.30;8.50;;;;;;;0.20;47.91;101133.52;25079;1315;3027171;-72
2022/03/21 02:33:52;;;;;;;17.40;9.00;;;;;;;0.17;48.19;101142.64;25142;1313;3052177;-69
2022/03/21 02:36:21;;;;;;;16.90;8.40;;;;;;;0.15;48.36;101135.55;25146;1315;3026541;-74
2022/03/21 02:38:50;;;;;;;17.00;8.10;;;;;;;0.16;48.48;101133.48;25109;1313;3026383;-72
2022/03/21 02:41:19;;;;;;;15.80;7.90;;;;;;;0.20;48.48;101132.15;25121;1315;3049292;-72
2022/03/21 02:43:58;;;;;;;16.50;8.30;;;;;;;0.25;48.59;101125.98;25167;1313;3026361;-71
2022/03/21 02:46:29;;;;;;;21.70;8.80;;;;;;;0.25;48.83;101122.72;25114;1313;3056567;-68
2022/03/21 02:48:58;;;;;;;19.30;9.20;;;;;;;0.31;48.75;101122.77;25153;1313;3028344;-74
2022/03/21 02:51:27;;;;;;;16.70;8.70;;;;;;;0.33;48.71;101121.06;25086;1313;3047691;-72
2022/03/21 02:53:57;;;;;;;25.70;11.90;;;;;;;0.38;48.66;101113.68;25101;1313;3026633;-67
2022/03/21 02:56:26;;;;;;;19.20;9.90;;;;;;;0.39;48.85;101111.96;25178;1312;3028311;-69
2022/03/21 02:58:55;;;;;;;17.50;9.40;;;;;;;0.39;48.78;101113.52;25125;1313;3049617;-69
2022/03/21 03:01:25;;;;;;;17.90;9.90;;;;;;;0.43;48.94;101112.52;25146;1313;3025995;-71
2022/03/21 03:03:54;;;;;;;18.70;9.60;;;;;;;0.42;48.85;101116.30;25137;1315;3027091;-71
2022/03/21 03:06:24;;;;;;;13.20;7.70;;;;;;;0.38;48.92;101114.55;25138;1314;3026279;-65
2022/03/21 03:08:54;;;;;;;13.90;7.40;;;;;;;0.40;49.05;101109.73;25111;1313;3026755;-69
2022/03/21 03:11:25;;;;;;;16.50;8.50;;;;;;;0.37;49.42;101107.80;25202;1315;3049622;-64
2022/03/21 03:13:54;;;;;;;13.10;7.20;;;;;;;0.39;49.22;101107.83;25128;1313;3026923;-71
2022/03/21 03:16:23;;;;;;;14.50;7.10;;;;;;;0.37;49.15;101104.02;25123;1315;3029791;-67
2022/03/21 03:19:05;;;;;;;15.30;7.90;;;;;;;0.29;49.71;101099.13;25111;1315;3051377;-69
2022/03/21 03:21:39;;;;;;;12.50;6.40;;;;;;;0.36;49.61;101103.83;25134;1315;3030039;-72
2022/03/21 03:24:11;;;;;;;13.90;7.80;;;;;;;0.37;49.21;101101.42;25159;1315;3054040;-67
2022/03/21 03:26:40;;;;;;;18.80;8.60;;;;;;;0.42;49.08;101097.33;25175;1313;3026574;-69
2022/03/21 03:29:09;;;;;;;14.40;6.70;;;;;;;0.37;49.16;101090.75;25115;1313;3028333;-66
2022/03/21 03:31:38;;;;;;;16.00;8.00;;;;;;;0.39;48.75;101092.48;25149;1313;3053568;-69
2022/03/21 03:34:07;;;;;;;15.60;7.70;;;;;;;0.38;48.71;101090.07;25154;1313;3029446;-67
2022/03/21 03:36:38;;;;;;;13.70;7.50;;;;;;;0.32;48.97;101092.77;25141;1315;3026375;-71
2022/03/21 03:39:08;;;;;;;13.30;5.80;;;;;;;0.29;48.88;101089.15;25170;1313;3052742;-71
2022/03/21 03:41:37;;;;;;;14.20;7.00;;;;;;;0.36;48.61;101089.70;25132;1313;3026534;-69
2022/03/21 03:44:06;;;;;;;12.40;7.20;;;;;;;0.33;48.73;101088.30;25164;1313;3048347;-72
2022/03/21 03:46:35;;;;;;;17.00;7.50;;;;;;;0.38;48.43;101086.61;25145;1313;3026308;-68
2022/03/21 03:49:04;;;;;;;14.10;7.20;;;;;;;0.35;48.82;101084.52;25126;1313;3026322;-69
2022/03/21 03:51:34;;;;;;;12.20;6.30;;;;;;;0.44;48.59;101075.10;25150;1313;3050867;-68
2022/03/21 03:54:03;;;;;;;14.20;7.30;;;;;;;0.54;48.63;101075.86;25139;1313;3026473;-71
2022/03/21 03:56:32;;;;;;;12.10;6.70;;;;;;;0.58;48.77;101074.67;25157;1313;3057966;-68
2022/03/21 03:59:01;;;;;;;13.20;6.90;;;;;;;0.61;48.68;101076.08;25114;1313;3028795;-69
2022/03/21 04:01:31;;;;;;;12.40;6.10;;;;;;;0.55;48.34;101071.20;25067;1313;3027346;-71
2022/03/21 04:04:00;;;;;;;20.30;7.20;;;;;;;0.61;47.85;101071.24;25128;1313;3028511;-67
2022/03/21 04:06:29;;;;;;;14.70;6.80;;;;;;;0.54;47.74;101069.13;25088;1315;3026241;-71
2022/03/21 04:08:59;;;;;;;12.10;5.60;;;;;;;0.54;47.76;101067.58;25125;1313;3052321;-70
2022/03/21 04:11:28;;;;;;;10.60;5.90;;;;;;;0.50;47.89;101066.86;25156;1313;3027303;-72
2022/03/21 04:14:17;;;;;;;13.00;6.10;;;;;;;0.55;47.85;101069.14;25119;1313;3071337;-68
2022/03/21 04:16:46;;;;;;;13.20;7.00;;;;;;;0.50;48.43;101074.63;25155;1314;3026426;-73
2022/03/21 04:19:15;;;;;;;16.80;8.30;;;;;;;0.51;48.82;101080.50;25125;1315;3052693;-70
2022/03/21 04:22:01;;;;;;;17.00;7.30;;;;;;;0.51;49.36;101087.04;25155;1312;3071631;-72
2022/03/21 04:24:30;;;;;;;19.30;7.40;;;;;;;0.48;49.65;101088.75;25105;1313;3026265;-71
2022/03/21 04:27:00;;;;;;;12.00;7.00;;;;;;;0.47;50.26;101088.22;25144;1313;3026877;-67
2022/03/21 04:29:30;;;;;;;11.80;6.40;;;;;;;0.48;50.53;101088.75;25156;1312;3070545;-69
2022/03/21 04:31:59;;;;;;;15.80;8.60;;;;;;;0.50;51.57;101088.59;25102;1312;3027150;-66
2022/03/21 04:34:28;;;;;;;15.90;7.50;;;;;;;0.55;51.88;101088.80;25105;1312;3050566;-69
2022/03/21 04:36:59;;;;;;;19.30;9.00;;;;;;;0.59;52.60;101086.23;25106;1312;3026736;-69
2022/03/21 04:39:28;;;;;;;14.30;7.50;;;;;;;0.64;52.65;101081.27;25171;1312;3026402;-71
2022/03/21 04:41:58;;;;;;;15.50;9.20;;;;;;;0.65;52.92;101078.17;25163;1313;3053971;-73
2022/03/21 04:44:27;;;;;;;18.60;8.50;;;;;;;0.65;52.52;101080.75;25101;1312;3026892;-70
2022/03/21 04:46:56;;;;;;;19.60;9.10;;;;;;;0.66;52.75;101091.28;25169;1313;3055634;-69
2022/03/21 04:49:25;;;;;;;13.60;7.70;;;;;;;0.64;52.70;101091.79;25129;1312;3026714;-71
2022/03/21 04:51:54;;;;;;;23.30;9.60;;;;;;;0.64;53.26;101092.30;25151;1312;3050781;-71
2022/03/21 04:54:23;;;;;;;21.70;11.20;;;;;;;0.65;53.36;101095.24;25123;1313;3026875;-66
2022/03/21 04:56:52;;;;;;;24.60;10.40;;;;;;;0.61;53.73;101097.29;25154;1313;3056618;-70
2022/03/21 04:59:22;;;;;;;25.10;12.60;;;;;;;0.57;54.38;101097.78;25159;1313;3027020;-68
2022/03/21 05:01:51;;;;;;;31.00;12.90;;;;;;;0.60;54.19;101099.01;25133;1312;3026611;-67
2022/03/21 05:04:22;;;;;;;38.30;14.10;;;;;;;0.64;54.47;101101.96;25217;1313;3055954;-65
2022/03/21 05:06:54;;;;;;;31.70;13.60;;;;;;;0.73;54.41;101089.77;25146;1312;3028493;-69
2022/03/21 05:09:23;;;;;;;28.20;12.70;;;;;;;0.76;54.47;101092.21;25143;1312;3029648;-70
2022/03/21 05:11:56;;;;;;;25.90;13.00;;;;;;;0.79;54.49;101091.87;25188;1315;3026764;-70
2022/03/21 05:14:25;;;;;;;31.40;13.00;;;;;;;0.79;54.54;101090.83;25074;1312;3026744;-70
2022/03/21 05:16:54;;;;;;;29.10;12.30;;;;;;;0.77;54.88;101089.79;25162;1312;3054812;-69
2022/03/21 05:19:39;;;;;;;26.20;12.60;;;;;;;0.73;54.98;101093.39;25117;1313;3054055;-70
2022/03/21 05:22:08;;;;;;;20.60;11.90;;;;;;;0.78;55.02;101088.77;25140;1313;3026653;-73
2022/03/21 05:35:57;;;;;;;27.40;13.60;;;;;;;0.81;55.35;101090.16;25185;1313;3055508;-67
2022/03/21 05:38:27;;;;;;;22.30;10.90;;;;;;;0.85;55.24;101089.67;25213;1312;3051066;-73
2022/03/21 05:40:59;;;;;;;31.00;14.00;;;;;;;0.96;54.99;101081.43;25194;1312;3026892;-69
2022/03/21 05:43:29;;;;;;;32.30;13.90;;;;;;;0.98;54.79;101086.98;25197;1313;3026753;-72
2022/03/21 05:46:01;;;;;;;31.80;13.90;;;;;;;1.08;54.79;101080.27;25148;1312;3026671;-68
2022/03/21 05:51:23;;;;;;;23.70;11.60;;;;;;;1.14;54.55;101072.54;25174;1311;3051180;-73
2022/03/21 05:53:52;;;;;;;36.40;12.80;;;;;;;1.11;54.71;101074.61;25223;1315;3055769;-71
2022/03/21 05:56:21;;;;;;;27.70;12.90;;;;;;;1.20;54.80;101073.59;25130;1312;3026716;-68
2022/03/21 05:58:52;;;;;;;28.60;13.40;;;;;;;1.32;54.43;101073.45;25110;1312;3051544;-68
2022/03/21 06:01:22;;;;;;;29.00;13.30;;;;;;;1.38;54.17;101076.92;25156;1312;3026437;-67
2022/03/21 06:03:54;;;;;;;31.40;14.10;;;;;;;1.48;54.11;101070.23;25150;1312;3026772;-70
2022/03/21 06:06:23;;;;;;;29.60;11.60;;;;;;;1.54;53.84;101079.56;25103;1315;3026572;-70
2022/03/21 06:08:52;;;;;;;21.80;11.70;;;;;;;1.50;53.44;101074.20;25165;1312;3026441;-68
2022/03/21 06:11:22;;;;;;;24.80;11.80;;;;;;;1.60;53.44;101076.12;25146;1315;3027370;-71
2022/03/21 06:13:52;;;;;;;30.30;12.00;;;;;;;1.62;53.29;101079.40;25175;1312;3027885;-68
2022/03/21 06:16:21;;;;;;;27.90;12.60;;;;;;;1.70;53.19;101081.67;25116;1313;3027465;-68
2022/03/21 06:18:51;;;;;;;27.90;13.90;;;;;;;1.85;52.85;101074.61;25200;1313;3051490;-70
2022/03/21 06:21:20;;;;;;;27.40;12.90;;;;;;;2.01;52.38;101068.74;25154;1313;3027370;-67
2022/03/21 06:23:49;;;;;;;31.20;14.10;;;;;;;2.20;52.10;101070.63;25139;1313;3026775;-69
2022/03/21 06:26:19;;;;;;;25.20;12.60;;;;;;;2.34;51.46;101071.14;25176;1313;3052401;-74
2022/03/21 06:28:49;;;;;;;28.50;13.40;;;;;;;2.39;51.75;101070.98;25141;1313;3026274;-72
2022/03/21 06:31:19;;;;;;;30.10;13.50;;;;;;;2.46;51.02;101076.66;25112;1315;3026686;-67
2022/03/21 06:33:48;;;;;;;31.90;14.20;;;;;;;2.59;51.10;101076.98;25136;1314;3026299;-71
2022/03/21 06:36:18;;;;;;;30.20;13.90;;;;;;;2.81;50.55;101078.66;25125;1313;3026955;-70
2022/03/21 06:38:47;;;;;;;27.90;13.80;;;;;;;2.96;49.90;101082.61;25120;1313;3058271;-72
2022/03/21 06:41:16;;;;;;;24.90;12.10;;;;;;;3.06;49.06;101083.94;25141;1313;3027106;-70
2022/03/21 06:43:45;;;;;;;23.40;12.10;;;;;;;3.10;49.04;101083.42;25109;1313;3053953;-66
2022/03/21 06:46:14;;;;;;;28.30;13.30;;;;;;;3.19;48.65;101077.14;25211;1313;3026808;-72
2022/03/21 06:48:45;;;;;;;32.50;12.50;;;;;;;3.32;48.60;101079.67;25166;1313;3054749;-67
2022/03/21 06:51:16;;;;;;;20.90;11.70;;;;;;;3.38;48.06;101077.90;25121;1313;3026396;-68
2022/03/21 06:53:45;;;;;;;22.50;12.60;;;;;;;3.46;47.97;101080.64;25101;1313;3048107;-71
2022/03/21 06:56:15;;;;;;;23.30;12.30;;;;;;;3.63;47.97;101077.77;25125;1315;3027127;-72
2022/03/21 06:58:44;;;;;;;33.00;12.90;;;;;;;3.65;48.00;101076.19;25155;1315;3026440;-70
2022/03/21 07:01:13;;;;;;;22.80;12.00;;;;;;;3.70;47.88;101075.99;25104;1313;3051885;-70
2022/03/21 07:03:42;;;;;;;28.50;12.80;;;;;;;3.85;47.47;101071.90;25148;1313;3030942;-71
2022/03/21 07:06:12;;;;;;;25.00;11.90;;;;;;;3.93;47.19;101067.70;25143;1313;3070854;-71
2022/03/21 07:08:42;;;;;;;21.40;11.20;;;;;;;3.95;47.13;101068.54;25192;1313;3026228;-70
2022/03/21 07:11:12;;;;;;;26.00;12.70;;;;;;;3.88;47.56;101071.18;25149;1313;3028283;-66
2022/03/21 07:13:42;;;;;;;25.80;11.50;;;;;;;3.99;47.59;101061.05;25182;1315;3026510;-67
2022/03/21 07:16:16;;;;;;;23.90;12.10;;;;;;;4.02;47.41;101058.09;25163;1313;3028054;-66
2022/03/21 07:19:06;;;;;;;24.50;12.60;;;;;;;4.10;47.23;101059.40;25111;1315;3051499;-70
2022/03/21 07:21:37;;;;;;;25.00;12.20;;;;;;;4.11;47.45;101064.25;25154;1313;3026379;-67
2022/03/21 07:24:07;;;;;;;29.00;13.60;;;;;;;4.10;47.47;101064.08;25149;1315;3026455;-70
2022/03/21 07:26:38;;;;;;;27.40;13.20;;;;;;;4.21;47.58;101062.77;25091;1313;3027315;-71
2022/03/21 07:29:08;;;;;;;25.90;13.60;;;;;;;4.34;47.33;101067.69;25124;1313;3027386;-70
2022/03/21 07:31:39;;;;;;;25.80;13.30;;;;;;;4.56;46.80;101060.35;25125;1313;3026659;-67
2022/03/21 07:34:08;;;;;;;25.90;12.70;;;;;;;4.70;46.68;101061.09;25183;1315;3027513;-69
2022/03/21 07:36:37;;;;;;;27.90;12.50;;;;;;;4.72;46.66;101058.11;25087;1315;3049000;-69
2022/03/21 07:39:06;;;;;;;22.20;12.90;;;;;;;4.88;46.19;101057.05;25146;1313;3026649;-68
2022/03/21 07:41:35;;;;;;;26.90;12.30;;;;;;;4.94;46.08;101054.38;25118;1315;3026630;-69
2022/03/21 07:44:06;;;;;;;30.00;12.20;;;;;;;4.97;45.86;101050.01;25152;1313;3048216;-65
2022/03/21 07:49:23;;;;;;;31.90;12.50;;;;;;;5.17;45.61;101051.31;25123;1313;3052154;-66
2022/03/21 07:51:52;;;;;;;22.10;11.60;;;;;;;5.24;45.57;101048.81;25117;1315;3026576;-65
2022/03/21 07:54:21;;;;;;;28.40;13.60;;;;;;;5.28;45.50;101050.48;25147;1313;3028037;-68
2022/03/21 07:56:51;;;;;;;27.80;12.70;;;;;;;5.41;45.40;101049.96;25104;1313;3054213;-68
2022/03/21 07:59:20;;;;;;;18.00;9.90;;;;;;;5.40;45.39;101043.55;25166;1313;3026836;-68
2022/03/21 08:01:49;;;;;;;17.70;10.10;;;;;;;5.45;45.29;101048.50;25143;1313;3054333;-70
2022/03/21 08:04:18;;;;;;;26.50;11.50;;;;;;;5.52;45.16;101039.55;25175;1313;3026503;-69
2022/03/21 08:06:47;;;;;;;24.00;11.00;;;;;;;5.65;45.01;101035.53;25105;1313;3049079;-68
2022/03/21 08:09:16;;;;;;;23.80;10.50;;;;;;;5.77;44.80;101030.84;25163;1313;3026839;-70
2022/03/21 08:11:46;;;;;;;22.30;11.10;;;;;;;5.91;44.72;101025.73;25090;1315;3067617;-69
2022/03/21 08:14:16;;;;;;;20.00;11.30;;;;;;;6.19;44.32;101025.46;25156;1315;3027444;-67
2022/03/21 08:16:45;;;;;;;22.40;10.00;;;;;;;6.40;43.96;101024.23;25095;1313;3026174;-68
2022/03/21 08:19:16;;;;;;;26.70;11.10;;;;;;;6.49;43.55;101017.61;25122;1313;3027065;-70
2022/03/21 08:21:46;;;;;;;19.50;9.80;;;;;;;6.52;43.45;101020.85;25112;1313;3027360;-71
2022/03/21 08:24:15;;;;;;;24.50;10.20;;;;;;;6.60;43.40;101020.20;25107;1315;3051650;-71
2022/03/21 08:26:44;;;;;;;20.90;10.70;;;;;;;6.80;43.04;101009.87;25140;1313;3026925;-69
2022/03/21 08:29:15;;;;;;;18.30;9.00;;;;;;;7.06;42.52;101010.90;25140;1312;3048629;-70
2022/03/21 08:31:44;;;;;;;16.30;9.20;;;;;;;7.19;42.25;101005.73;25161;1313;3029549;-72
2022/03/21 08:34:13;;;;;;;17.30;9.10;;;;;;;7.40;41.74;101004.05;25138;1317;3026679;-67
2022/03/21 08:36:42;;;;;;;14.60;7.50;;;;;;;7.65;41.45;100995.80;25143;1312;3028589;-69
2022/03/21 08:39:11;;;;;;;14.00;6.80;;;;;;;7.76;40.56;100995.19;25153;1315;3052174;-69
2022/03/21 08:41:41;;;;;;;11.00;5.70;;;;;;;7.90;39.76;100996.57;25137;1314;3026785;-68
2022/03/21 08:44:10;;;;;;;12.90;5.40;;;;;;;7.97;39.12;100991.52;25156;1313;3051433;-70
2022/03/21 08:46:39;;;;;;;13.00;5.30;;;;;;;8.08;38.90;100992.47;25154;1313;3026322;-74
2022/03/21 08:49:23;;;;;;;11.80;6.00;;;;;;;7.96;39.18;100998.87;25176;1312;3070467;-66
2022/03/21 08:51:54;;;;;;;23.10;5.10;;;;;;;7.95;39.40;100991.20;25170;1313;3049498;-68
2022/03/21 08:54:23;;;;;;;11.70;5.90;;;;;;;8.09;39.12;100988.42;25115;1312;3029745;-70
2022/03/21 08:56:52;;;;;;;12.80;5.10;;;;;;;8.31;38.66;100987.67;25182;1313;3026585;-69
2022/03/21 08:59:21;;;;;;;16.30;5.90;;;;;;;8.34;38.63;100981.46;25108;1315;3048706;-70
2022/03/21 09:01:50;;;;;;;12.20;5.50;;;;;;;8.62;38.28;100976.54;25181;1313;3026742;-68
2022/03/21 09:04:19;;;;;;;11.30;4.90;;;;;;;8.74;37.86;100978.30;25087;1312;3068575;-68
2022/03/21 09:06:49;;;;;;;11.70;4.00;;;;;;;8.83;37.73;100968.94;25173;1313;3026318;-69
2022/03/21 09:09:18;;;;;;;9.20;4.60;;;;;;;8.96;37.49;100965.77;25149;1312;3051917;-72
2022/03/21 09:12:01;;;;;;;7.60;4.00;;;;;;;9.22;37.28;100966.02;25115;1313;3071155;-69
2022/03/21 09:14:30;;;;;;;8.10;4.00;;;;;;;9.28;36.59;100957.98;25173;1312;3029012;-70
2022/03/21 09:17:00;;;;;;;10.60;3.50;;;;;;;9.47;36.15;100957.73;25183;1315;3054382;-69
2022/03/21 09:19:29;;;;;;;7.70;3.40;;;;;;;9.64;35.63;100954.73;25128;1312;3026155;-68
2022/03/21 09:21:59;;;;;;;6.70;3.10;;;;;;;9.74;35.28;100952.46;25090;1316;3026170;-71
2022/03/21 09:24:29;;;;;;;10.80;3.30;;;;;;;9.76;34.63;100946.28;25155;1313;3026647;-68
2022/03/21 09:26:58;;;;;;;14.90;4.00;;;;;;;9.90;34.83;100943.02;25139;1312;3069822;-69
2022/03/21 09:29:27;;;;;;;8.40;3.20;;;;;;;9.97;34.33;100945.21;25135;1312;3026653;-71
2022/03/21 09:31:56;;;;;;;8.50;2.40;;;;;;;10.01;34.09;100941.60;25153;1312;3027738;-70
2022/03/21 09:34:27;;;;;;;6.50;2.50;;;;;;;10.02;33.68;100939.43;25165;1313;3070256;-67
2022/03/21 09:36:57;;;;;;;8.50;2.40;;;;;;;10.14;33.15;100936.39;25132;1312;3028138;-68
2022/03/21 09:39:25;;;;;;;8.80;2.50;;;;;;;10.29;32.85;100943.22;25149;1313;3029426;-68
2022/03/21 09:41:55;;;;;;;5.90;2.50;;;;;;;10.42;32.71;100936.66;25131;1312;3066820;-67
2022/03/21 09:44:24;;;;;;;14.00;3.80;;;;;;;10.61;32.39;100930.89;25140;1312;3026889;-67
2022/03/21 09:46:54;;;;;;;5.50;2.50;;;;;;;10.54;32.82;100929.75;25158;1315;3028144;-70
2022/03/21 09:49:26;;;;;;;6.00;2.30;;;;;;;10.40;33.37;100940.60;25042;1319;3028903;-67
2022/03/21 09:51:55;;;;;;;17.60;2.60;;;;;;;10.27;33.46;100933.48;25176;1312;3048733;-69
2022/03/21 09:54:24;;;;;;;9.00;2.60;;;;;;;10.22;33.54;100929.98;25162;1312;3026151;-72
2022/03/21 09:56:55;;;;;;;9.90;2.70;;;;;;;10.36;33.24;100930.89;25176;1312;3026907;-67
2022/03/21 09:59:24;;;;;;;8.40;2.40;;;;;;;10.61;33.07;100926.86;25176;1313;3051224;-67
2022/03/21 10:01:53;;;;;;;7.30;2.20;;;;;;;10.63;32.40;100915.20;25156;1312;3026386;-69
2022/03/21 10:04:22;;;;;;;11.20;2.60;;;;;;;10.75;32.31;100917.38;25180;1312;3068119;-68
2022/03/21 10:06:58;;;;;;;10.80;2.50;;;;;;;10.98;32.20;100914.55;25101;1313;3028391;-67
2022/03/21 10:09:27;;;;;;;9.70;2.80;;;;;;;11.22;31.62;100915.20;25121;1313;3053358;-68
2022/03/21 10:11:57;;;;;;;29.10;3.10;;;;;;;11.14;31.80;100906.56;25149;1312;3026871;-69
2022/03/21 10:14:34;;;;;;;16.80;2.40;;;;;;;11.15;32.36;100905.64;25142;1315;3052084;-71
2022/03/21 10:17:11;;;;;;;12.00;2.70;;;;;;;11.16;32.65;100905.45;25190;1313;3054806;-70
2022/03/21 10:19:46;;;;;;;7.40;2.30;;;;;;;11.34;32.50;100903.29;25173;1313;3052067;-72
2022/03/21 10:22:37;;;;;;;14.30;2.20;;;;;;;11.56;32.23;100900.15;25111;1312;3057273;-68
2022/03/21 10:25:07;;;;;;;8.60;2.60;;;;;;;11.66;32.39;100896.40;25141;1312;3049734;-66
2022/03/21 10:27:39;;;;;;;5.60;2.20;;;;;;;11.57;32.23;100893.27;25141;1316;3026540;-67
2022/03/21 10:30:15;;;;;;;10.80;2.50;;;;;;;11.54;32.19;100889.31;25147;1312;3026847;-67
2022/03/21 10:32:55;;;;;;;11.90;2.60;;;;;;;11.50;32.21;100885.48;25118;1313;3071193;-68
2022/03/21 10:35:29;;;;;;;9.20;2.60;;;;;;;11.52;32.30;100879.27;25140;1312;3051762;-68
2022/03/21 10:38:07;;;;;;;11.70;2.60;;;;;;;11.72;32.28;100871.74;25200;1313;3050849;-67
2022/03/21 10:40:42;;;;;;;10.60;2.80;;;;;;;12.00;31.94;100866.13;25122;1312;3055207;-66
2022/03/21 10:43:13;;;;;;;11.10;2.60;;;;;;;11.80;32.30;100853.12;25118;1315;3026652;-66
2022/03/21 10:45:46;;;;;;;12.90;2.60;;;;;;;12.04;32.10;100852.98;25142;1313;3027883;-65
2022/03/21 10:48:16;;;;;;;8.20;3.10;;;;;;;12.27;31.97;100844.92;25155;1316;3027412;-69
2022/03/21 10:50:54;;;;;;;11.70;2.50;;;;;;;12.41;32.04;100840.23;25157;1313;3054176;-66
2022/03/21 10:53:39;;;;;;;10.20;2.50;;;;;;;12.31;32.06;100840.35;25132;1312;3025995;-66
2022/03/21 10:56:09;;;;;;;6.10;2.80;;;;;;;12.54;32.28;100842.30;25158;1315;3053394;-69
2022/03/21 10:58:43;;;;;;;9.20;2.80;;;;;;;12.44;32.53;100840.98;25135;1312;3027090;-70
2022/03/21 11:01:32;;;;;;;11.50;3.30;;;;;;;12.34;32.81;100834.59;25195;1315;3026442;-69
2022/03/21 11:04:02;;;;;;;10.10;2.90;;;;;;;12.43;32.63;100826.26;25157;1313;3059561;-68
2022/03/21 11:06:31;;;;;;;6.50;2.50;;;;;;;12.70;32.28;100824.63;25098;1315;3026737;-69
2022/03/21 11:09:02;;;;;;;12.20;2.50;;;;;;;12.50;32.37;100819.61;25120;1315;3026761;-65
2022/03/21 11:11:33;;;;;;;9.70;2.60;;;;;;;12.70;32.47;100810.27;25164;1315;3028131;-68
2022/03/21 11:14:02;;;;;;;8.90;2.80;;;;;;;12.74;32.57;100808.99;25131;1315;3026282;-64
2022/03/21 11:16:33;;;;;;;11.40;3.00;;;;;;;12.68;32.88;100803.98;25171;1315;3026829;-66
2022/03/21 11:19:02;;;;;;;11.00;2.90;;;;;;;12.80;32.84;100805.19;25139;1318;3026257;-67
2022/03/21 11:21:33;;;;;;;9.60;2.40;;;;;;;12.94;32.78;100801.17;25167;1315;3071932;-69
2022/03/21 11:24:03;;;;;;;6.30;2.30;;;;;;;13.19;32.69;100798.90;25150;1312;3028076;-72
2022/03/21 11:26:40;;;;;;;9.70;2.50;;;;;;;13.02;32.89;100794.45;25166;1312;3026831;-68
2022/03/21 11:29:31;;;;;;;8.80;2.30;;;;;;;12.97;33.57;100791.36;25122;1313;3052885;-67
2022/03/21 11:32:04;;;;;;;12.10;2.40;;;;;;;13.38;33.11;100790.20;25107;1312;3058343;-65
2022/03/21 11:34:59;;;;;;;8.10;2.40;;;;;;;13.49;33.20;100783.70;25119;1313;3026612;-70
2022/03/21 11:37:30;;;;;;;6.60;2.00;;;;;;;13.64;32.99;100784.45;25167;1315;3055238;-68
2022/03/21 11:40:24;;;;;;;7.40;1.90;;;;;;;13.79;32.95;100782.64;25135;1316;3026522;-66
2022/03/21 11:42:56;;;;;;;8.00;2.30;;;;;;;13.88;32.80;100780.22;25144;1312;3069893;-66
2022/03/21 11:45:34;;;;;;;9.10;2.30;;;;;;;13.91;32.85;100779.02;25163;1313;3026377;-67